Chignik Lake, Alaska
Current Conditions -  °F | °C
As of 1:36 PM on Friday 24 Oct 2014 (Local Time) from PAJC Reporting Station
Clear Clear  
Wind Chill: 35°   Ceiling: Unl
Heat Index: 43°   Visibility: 10mi
Dew Point: 30°   Wind: 17mph
Humidity: 61%   Direction: 270°W
Pressure: 30.01"   Gusts: 28mph
Location:  56.26°N, 158.77°W
Report Text: PAJC 242136Z AUTO 27015G24KT 240V350 10SM CLR 06/M01 A3001 RMK AO1
Loading
Personal Weather Stations






























Interactive Weather Map
Tropical Storm Tracking
New forecast layout! Learn more

10-Day Weather Forecast

Advertisements
Track Severe Weather on mobile